Terminal Aerodrome Forecast
Issued by NWS La Crosse, WI

Home | Current Version | Previous Version | Text Only | Print | Product List | Glossary On
Versions: 1 2 3 4 5 6 7 8 9 10 11 12 13 14 15 16 17
000
FTUS43 KARX 272326
TAFLSE
TAF
KLSE 272326Z 2800/2824 VRB04KT P6SM OVC100
      TEMPO 2800/2802 -SHRA
     FM280800 VRB03KT P6SM VCSH BKN090
     FM281200 20005KT P6SM SCT100
     FM281800 28013KT P6SM FEW070=

USA.gov is the U.S. government's official web portal to all federal, state and local government web resources and services.